Portada
METAR-TAF:

METAR-TAF

Aeroports :

San Salvador, El Salvador

latitud: 13-42N, longitud: 089-07W, altitud: 616 m

Observació

L'informe es va fer fa 1 hora i 49 minuts, a les 23:50 UTC
Vent 7 kt del Nord
Temperatura 26°C
Humitat 51%
Pressió 1015 hPa
Visibilitat 10 km o més
sense núvols per sota de 1500 mi sense presència de cumulonimbus.

METAR: MSSS 172350Z 35007KT CAVOK 26/15 Q1014 A2997

Hora: 19:39 (01:39 UTC)

Pronòstic

L'informe es va fer fa 4 hores i 14 minuts, a les 21:25 UTC
Pronòstic vàlid del 18 a les 00 UTC al 18 a les 24 UTC
Vent 8 kt del Nord
Visibilitat 10 km o més
sense núvols per sota de 1500 mi sense presència de cumulonimbus.

TAF: MSSS 172125Z 1800/1824 36008KT CAVOK TX32/1820Z TN18/1812Z

Observacions i pronòstics meteorològics de més de 4000 aeroports (METAR i TAF).

Les estacions disponibles són els punts grocs i vermells al mapa.

Posi el ratolí al punt desitjat per veure el nom de l'estació.

Feu clic per veure les observacions i els pronòstics meteorològics.

Per canviar el mapa: feu clic els botons verds amb una creu de color negre per apropar; al botó verd amb un guió per allunyar la imatge; o en les fletxes verdes per a mapes adjacents.


METAR-TAF: